sensor_id;sensor_type;location;lat;lon;timestamp;P1;durP1;ratioP1;P2;durP2;ratioP2
68108;SDS011;54893;49.864;19.084;2023-06-24T00:01:35;6.90;;;4.30;;
68108;SDS011;54893;49.864;19.084;2023-06-24T00:06:36;9.98;;;4.00;;
68108;SDS011;54893;49.864;19.084;2023-06-24T00:11:39;9.97;;;4.00;;
68108;SDS011;54893;49.864;19.084;2023-06-24T00:16:40;7.57;;;4.00;;
68108;SDS011;54893;49.864;19.084;2023-06-24T00:21:41;9.30;;;3.70;;
68108;SDS011;54893;49.864;19.084;2023-06-24T00:26:42;8.23;;;4.20;;
68108;SDS011;54893;49.864;19.084;2023-06-24T00:31:42;6.23;;;3.77;;
68108;SDS011;54893;49.864;19.084;2023-06-24T00:36:43;10.47;;;4.60;;
68108;SDS011;54893;49.864;19.084;2023-06-24T00:41:44;9.93;;;4.43;;
68108;SDS011;54893;49.864;19.084;2023-06-24T00:46:44;7.57;;;4.17;;
68108;SDS011;54893;49.864;19.084;2023-06-24T00:51:45;7.93;;;4.10;;
68108;SDS011;54893;49.864;19.084;2023-06-24T00:56:50;7.22;;;4.00;;
68108;SDS011;54893;49.864;19.084;2023-06-24T01:01:50;7.87;;;3.87;;
68108;SDS011;54893;49.864;19.084;2023-06-24T01:06:52;8.77;;;4.65;;
68108;SDS011;54893;49.864;19.084;2023-06-24T01:11:53;7.40;;;4.30;;
68108;SDS011;54893;49.864;19.084;2023-06-24T01:16:59;7.67;;;4.23;;
68108;SDS011;54893;49.864;19.084;2023-06-24T01:33:04;7.50;;;3.90;;
68108;SDS011;54893;49.864;19.084;2023-06-24T01:38:15;8.37;;;4.27;;
68108;SDS011;54893;49.864;19.084;2023-06-24T01:43:22;8.18;;;4.20;;
68108;SDS011;54893;49.864;19.084;2023-06-24T01:48:28;6.85;;;3.90;;
68108;SDS011;54893;49.864;19.084;2023-06-24T01:53:36;6.28;;;3.97;;
68108;SDS011;54893;49.864;19.084;2023-06-24T01:58:40;7.30;;;3.92;;
68108;SDS011;54893;49.864;19.084;2023-06-24T02:03:42;7.50;;;4.30;;
68108;SDS011;54893;49.864;19.084;2023-06-24T02:08:43;6.95;;;4.07;;
68108;SDS011;54893;49.864;19.084;2023-06-24T02:13:47;6.75;;;4.10;;
68108;SDS011;54893;49.864;19.084;2023-06-24T02:18:48;7.68;;;4.30;;
68108;SDS011;54893;49.864;19.084;2023-06-24T02:23:49;6.93;;;4.35;;
68108;SDS011;54893;49.864;19.084;2023-06-24T02:28:51;7.28;;;4.18;;
68108;SDS011;54893;49.864;19.084;2023-06-24T02:33:53;6.43;;;4.13;;
68108;SDS011;54893;49.864;19.084;2023-06-24T02:38:53;7.30;;;4.10;;
68108;SDS011;54893;49.864;19.084;2023-06-24T02:43:53;8.17;;;4.27;;
68108;SDS011;54893;49.864;19.084;2023-06-24T02:48:54;10.10;;;4.17;;
68108;SDS011;54893;49.864;19.084;2023-06-24T02:53:56;6.87;;;4.40;;
68108;SDS011;54893;49.864;19.084;2023-06-24T02:58:58;8.48;;;4.20;;
68108;SDS011;54893;49.864;19.084;2023-06-24T03:03:58;8.20;;;4.57;;
68108;SDS011;54893;49.864;19.084;2023-06-24T03:08:59;8.87;;;4.30;;
68108;SDS011;54893;49.864;19.084;2023-06-24T03:13:59;7.10;;;4.07;;
68108;SDS011;54893;49.864;19.084;2023-06-24T03:18:59;7.23;;;4.10;;
68108;SDS011;54893;49.864;19.084;2023-06-24T03:24:00;7.07;;;4.47;;
68108;SDS011;54893;49.864;19.084;2023-06-24T03:29:01;7.07;;;4.60;;
68108;SDS011;54893;49.864;19.084;2023-06-24T03:34:01;8.07;;;4.43;;
68108;SDS011;54893;49.864;19.084;2023-06-24T03:39:02;9.57;;;4.50;;
68108;SDS011;54893;49.864;19.084;2023-06-24T03:44:03;7.97;;;4.50;;
68108;SDS011;54893;49.864;19.084;2023-06-24T03:49:06;9.87;;;4.93;;
68108;SDS011;54893;49.864;19.084;2023-06-24T03:59:32;8.15;;;4.40;;
68108;SDS011;54893;49.864;19.084;2023-06-24T04:04:32;10.13;;;5.60;;
68108;SDS011;54893;49.864;19.084;2023-06-24T04:09:33;11.30;;;5.47;;
68108;SDS011;54893;49.864;19.084;2023-06-24T04:14:34;8.00;;;5.22;;
68108;SDS011;54893;49.864;19.084;2023-06-24T04:19:35;10.20;;;6.23;;
68108;SDS011;54893;49.864;19.084;2023-06-24T04:24:35;11.00;;;5.70;;
68108;SDS011;54893;49.864;19.084;2023-06-24T04:29:35;9.67;;;5.33;;
68108;SDS011;54893;49.864;19.084;2023-06-24T04:34:36;10.47;;;6.03;;
68108;SDS011;54893;49.864;19.084;2023-06-24T04:39:36;11.07;;;6.00;;
68108;SDS011;54893;49.864;19.084;2023-06-24T04:44:37;10.70;;;5.87;;
68108;SDS011;54893;49.864;19.084;2023-06-24T04:49:37;11.83;;;6.20;;
68108;SDS011;54893;49.864;19.084;2023-06-24T04:54:37;10.37;;;6.40;;
68108;SDS011;54893;49.864;19.084;2023-06-24T04:59:38;13.07;;;7.17;;
68108;SDS011;54893;49.864;19.084;2023-06-24T05:04:38;12.07;;;7.40;;
68108;SDS011;54893;49.864;19.084;2023-06-24T05:09:38;15.20;;;7.27;;
68108;SDS011;54893;49.864;19.084;2023-06-24T05:14:39;12.03;;;7.50;;
68108;SDS011;54893;49.864;19.084;2023-06-24T05:19:39;12.97;;;7.50;;
68108;SDS011;54893;49.864;19.084;2023-06-24T05:24:40;15.83;;;7.90;;
68108;SDS011;54893;49.864;19.084;2023-06-24T05:29:41;16.90;;;9.27;;
68108;SDS011;54893;49.864;19.084;2023-06-24T05:34:41;20.43;;;9.77;;
68108;SDS011;54893;49.864;19.084;2023-06-24T05:39:42;21.30;;;10.40;;
68108;SDS011;54893;49.864;19.084;2023-06-24T05:44:42;24.87;;;12.03;;
68108;SDS011;54893;49.864;19.084;2023-06-24T05:49:42;25.43;;;12.90;;
68108;SDS011;54893;49.864;19.084;2023-06-24T05:54:43;25.20;;;12.13;;
68108;SDS011;54893;49.864;19.084;2023-06-24T05:59:43;36.83;;;14.67;;
68108;SDS011;54893;49.864;19.084;2023-06-24T06:04:43;29.07;;;14.00;;
68108;SDS011;54893;49.864;19.084;2023-06-24T06:09:44;35.30;;;15.10;;
68108;SDS011;54893;49.864;19.084;2023-06-24T06:14:44;41.20;;;16.63;;
68108;SDS011;54893;49.864;19.084;2023-06-24T06:19:45;38.87;;;17.07;;
68108;SDS011;54893;49.864;19.084;2023-06-24T06:24:46;39.05;;;16.17;;
68108;SDS011;54893;49.864;19.084;2023-06-24T06:29:47;40.13;;;16.47;;
68108;SDS011;54893;49.864;19.084;2023-06-24T06:34:47;47.87;;;18.40;;
68108;SDS011;54893;49.864;19.084;2023-06-24T06:39:47;46.33;;;19.00;;
68108;SDS011;54893;49.864;19.084;2023-06-24T06:44:48;55.10;;;20.43;;
68108;SDS011;54893;49.864;19.084;2023-06-24T06:49:48;55.80;;;20.43;;
68108;SDS011;54893;49.864;19.084;2023-06-24T06:54:49;54.90;;;21.97;;
68108;SDS011;54893;49.864;19.084;2023-06-24T06:59:49;61.40;;;25.70;;
68108;SDS011;54893;49.864;19.084;2023-06-24T07:04:52;51.47;;;21.97;;
68108;SDS011;54893;49.864;19.084;2023-06-24T07:09:52;46.67;;;19.50;;
68108;SDS011;54893;49.864;19.084;2023-06-24T07:14:52;39.57;;;18.80;;
68108;SDS011;54893;49.864;19.084;2023-06-24T07:19:53;57.93;;;24.43;;
68108;SDS011;54893;49.864;19.084;2023-06-24T07:24:53;66.67;;;28.23;;
68108;SDS011;54893;49.864;19.084;2023-06-24T07:29:56;58.53;;;32.22;;
68108;SDS011;54893;49.864;19.084;2023-06-24T07:34:56;52.50;;;26.23;;
68108;SDS011;54893;49.864;19.084;2023-06-24T07:39:56;50.43;;;29.10;;
68108;SDS011;54893;49.864;19.084;2023-06-24T07:44:57;46.37;;;23.50;;
68108;SDS011;54893;49.864;19.084;2023-06-24T07:49:57;48.43;;;30.73;;
68108;SDS011;54893;49.864;19.084;2023-06-24T07:54:58;42.37;;;23.33;;
68108;SDS011;54893;49.864;19.084;2023-06-24T07:59:58;37.50;;;22.23;;
68108;SDS011;54893;49.864;19.084;2023-06-24T08:04:59;34.73;;;20.10;;
68108;SDS011;54893;49.864;19.084;2023-06-24T08:10:00;34.83;;;18.58;;
68108;SDS011;54893;49.864;19.084;2023-06-24T08:15:02;30.27;;;15.60;;
68108;SDS011;54893;49.864;19.084;2023-06-24T08:20:03;29.83;;;17.13;;
68108;SDS011;54893;49.864;19.084;2023-06-24T08:25:05;27.30;;;16.10;;
68108;SDS011;54893;49.864;19.084;2023-06-24T08:30:06;24.77;;;15.93;;
68108;SDS011;54893;49.864;19.084;2023-06-24T08:35:08;27.83;;;15.33;;
68108;SDS011;54893;49.864;19.084;2023-06-24T08:40:09;24.40;;;14.35;;
68108;SDS011;54893;49.864;19.084;2023-06-24T08:45:10;23.30;;;13.57;;
68108;SDS011;54893;49.864;19.084;2023-06-24T08:50:11;22.10;;;14.13;;
68108;SDS011;54893;49.864;19.084;2023-06-24T08:55:13;21.20;;;13.33;;
68108;SDS011;54893;49.864;19.084;2023-06-24T09:00:17;21.38;;;13.35;;
68108;SDS011;54893;49.864;19.084;2023-06-24T09:05:17;21.60;;;13.50;;
68108;SDS011;54893;49.864;19.084;2023-06-24T09:10:34;23.33;;;13.37;;
68108;SDS011;54893;49.864;19.084;2023-06-24T09:15:36;20.63;;;12.50;;
68108;SDS011;54893;49.864;19.084;2023-06-24T09:20:41;20.73;;;11.63;;
68108;SDS011;54893;49.864;19.084;2023-06-24T09:25:44;20.60;;;10.90;;
68108;SDS011;54893;49.864;19.084;2023-06-24T09:31:08;17.63;;;10.52;;
68108;SDS011;54893;49.864;19.084;2023-06-24T09:36:13;18.63;;;9.98;;
68108;SDS011;54893;49.864;19.084;2023-06-24T09:41:14;23.80;;;11.32;;
68108;SDS011;54893;49.864;19.084;2023-06-24T09:46:15;18.13;;;9.97;;
68108;SDS011;54893;49.864;19.084;2023-06-24T09:51:16;19.23;;;10.25;;
68108;SDS011;54893;49.864;19.084;2023-06-24T09:56:17;17.07;;;9.50;;
68108;SDS011;54893;49.864;19.084;2023-06-24T10:01:18;16.90;;;9.38;;
68108;SDS011;54893;49.864;19.084;2023-06-24T10:06:19;16.48;;;9.50;;
68108;SDS011;54893;49.864;19.084;2023-06-24T10:11:20;15.68;;;8.60;;
68108;SDS011;54893;49.864;19.084;2023-06-24T10:16:21;18.53;;;9.60;;
68108;SDS011;54893;49.864;19.084;2023-06-24T10:21:22;18.55;;;9.50;;
68108;SDS011;54893;49.864;19.084;2023-06-24T10:26:48;14.97;;;9.40;;
68108;SDS011;54893;49.864;19.084;2023-06-24T10:42:24;16.92;;;9.85;;
68108;SDS011;54893;49.864;19.084;2023-06-24T10:47:27;17.52;;;10.27;;
68108;SDS011;54893;49.864;19.084;2023-06-24T10:52:28;17.17;;;10.33;;
68108;SDS011;54893;49.864;19.084;2023-06-24T10:57:29;19.60;;;10.90;;
68108;SDS011;54893;49.864;19.084;2023-06-24T11:02:30;18.17;;;11.00;;
68108;SDS011;54893;49.864;19.084;2023-06-24T11:07:31;19.37;;;11.27;;
68108;SDS011;54893;49.864;19.084;2023-06-24T11:12:35;18.60;;;11.10;;
68108;SDS011;54893;49.864;19.084;2023-06-24T11:17:37;19.23;;;10.80;;
68108;SDS011;54893;49.864;19.084;2023-06-24T11:22:39;19.77;;;11.10;;
68108;SDS011;54893;49.864;19.084;2023-06-24T11:27:40;19.67;;;11.47;;
68108;SDS011;54893;49.864;19.084;2023-06-24T11:32:41;19.70;;;11.33;;
68108;SDS011;54893;49.864;19.084;2023-06-24T11:37:45;17.38;;;11.23;;
68108;SDS011;54893;49.864;19.084;2023-06-24T11:42:46;20.08;;;12.85;;
68108;SDS011;54893;49.864;19.084;2023-06-24T11:47:50;21.13;;;13.90;;
68108;SDS011;54893;49.864;19.084;2023-06-24T11:52:52;22.67;;;13.77;;
68108;SDS011;54893;49.864;19.084;2023-06-24T11:58:00;22.30;;;14.93;;
68108;SDS011;54893;49.864;19.084;2023-06-24T12:03:05;23.38;;;15.38;;
68108;SDS011;54893;49.864;19.084;2023-06-24T12:08:07;23.98;;;14.82;;
68108;SDS011;54893;49.864;19.084;2023-06-24T12:13:10;21.27;;;13.00;;
68108;SDS011;54893;49.864;19.084;2023-06-24T12:18:12;20.67;;;13.47;;
68108;SDS011;54893;49.864;19.084;2023-06-24T12:23:14;20.77;;;12.65;;
68108;SDS011;54893;49.864;19.084;2023-06-24T12:28:14;21.53;;;12.90;;
68108;SDS011;54893;49.864;19.084;2023-06-24T12:33:14;19.60;;;12.93;;
68108;SDS011;54893;49.864;19.084;2023-06-24T12:38:18;21.10;;;11.82;;
68108;SDS011;54893;49.864;19.084;2023-06-24T12:43:19;19.90;;;12.67;;
68108;SDS011;54893;49.864;19.084;2023-06-24T12:48:19;18.40;;;12.23;;
68108;SDS011;54893;49.864;19.084;2023-06-24T12:53:20;20.20;;;11.77;;
68108;SDS011;54893;49.864;19.084;2023-06-24T12:58:22;20.77;;;11.27;;
68108;SDS011;54893;49.864;19.084;2023-06-24T13:03:24;19.88;;;11.10;;
68108;SDS011;54893;49.864;19.084;2023-06-24T13:08:24;22.07;;;11.40;;
68108;SDS011;54893;49.864;19.084;2023-06-24T13:13:24;23.40;;;13.83;;
68108;SDS011;54893;49.864;19.084;2023-06-24T13:18:25;20.43;;;10.87;;
68108;SDS011;54893;49.864;19.084;2023-06-24T13:23:25;19.37;;;11.73;;
68108;SDS011;54893;49.864;19.084;2023-06-24T13:28:26;21.53;;;11.93;;
68108;SDS011;54893;49.864;19.084;2023-06-24T13:33:26;21.57;;;11.17;;
68108;SDS011;54893;49.864;19.084;2023-06-24T13:38:26;17.17;;;12.97;;
68108;SDS011;54893;49.864;19.084;2023-06-24T13:43:27;17.37;;;10.37;;
68108;SDS011;54893;49.864;19.084;2023-06-24T13:48:27;19.23;;;10.00;;
68108;SDS011;54893;49.864;19.084;2023-06-24T13:53:27;19.33;;;10.23;;
68108;SDS011;54893;49.864;19.084;2023-06-24T13:58:28;17.97;;;10.80;;
68108;SDS011;54893;49.864;19.084;2023-06-24T14:03:28;20.03;;;10.53;;
68108;SDS011;54893;49.864;19.084;2023-06-24T14:08:29;18.23;;;9.23;;
68108;SDS011;54893;49.864;19.084;2023-06-24T14:13:30;16.92;;;10.68;;
68108;SDS011;54893;49.864;19.084;2023-06-24T14:18:31;18.98;;;10.82;;
68108;SDS011;54893;49.864;19.084;2023-06-24T14:23:32;19.35;;;10.20;;
68108;SDS011;54893;49.864;19.084;2023-06-24T14:28:33;20.87;;;12.37;;
68108;SDS011;54893;49.864;19.084;2023-06-24T14:33:33;48.03;;;27.67;;
68108;SDS011;54893;49.864;19.084;2023-06-24T14:38:34;25.60;;;15.13;;
68108;SDS011;54893;49.864;19.084;2023-06-24T14:43:34;24.10;;;14.33;;
68108;SDS011;54893;49.864;19.084;2023-06-24T14:48:34;40.23;;;25.50;;
68108;SDS011;54893;49.864;19.084;2023-06-24T14:53:36;31.65;;;19.95;;
68108;SDS011;54893;49.864;19.084;2023-06-24T14:58:36;22.37;;;11.33;;
68108;SDS011;54893;49.864;19.084;2023-06-24T15:03:37;19.27;;;11.13;;
68108;SDS011;54893;49.864;19.084;2023-06-24T15:08:37;16.63;;;8.43;;
68108;SDS011;54893;49.864;19.084;2023-06-24T15:13:38;19.80;;;8.63;;
68108;SDS011;54893;49.864;19.084;2023-06-24T15:18:45;18.93;;;8.50;;
68108;SDS011;54893;49.864;19.084;2023-06-24T15:23:47;16.00;;;8.30;;
68108;SDS011;54893;49.864;19.084;2023-06-24T15:28:47;16.50;;;9.10;;
68108;SDS011;54893;49.864;19.084;2023-06-24T15:33:48;19.77;;;10.67;;
68108;SDS011;54893;49.864;19.084;2023-06-24T15:38:48;20.93;;;10.93;;
68108;SDS011;54893;49.864;19.084;2023-06-24T15:43:49;26.70;;;11.37;;
68108;SDS011;54893;49.864;19.084;2023-06-24T15:48:49;21.43;;;10.37;;
68108;SDS011;54893;49.864;19.084;2023-06-24T15:53:50;21.30;;;10.65;;
68108;SDS011;54893;49.864;19.084;2023-06-24T15:58:50;21.43;;;10.73;;
68108;SDS011;54893;49.864;19.084;2023-06-24T16:03:50;21.73;;;10.40;;
68108;SDS011;54893;49.864;19.084;2023-06-24T16:08:51;22.70;;;11.40;;
68108;SDS011;54893;49.864;19.084;2023-06-24T16:13:51;20.50;;;11.47;;
68108;SDS011;54893;49.864;19.084;2023-06-24T16:18:52;24.47;;;11.57;;
68108;SDS011;54893;49.864;19.084;2023-06-24T16:23:52;24.87;;;11.20;;
68108;SDS011;54893;49.864;19.084;2023-06-24T16:28:53;27.63;;;11.53;;
68108;SDS011;54893;49.864;19.084;2023-06-24T16:33:54;27.73;;;12.55;;
68108;SDS011;54893;49.864;19.084;2023-06-24T16:38:54;24.80;;;13.10;;
68108;SDS011;54893;49.864;19.084;2023-06-24T16:43:55;25.33;;;12.37;;
68108;SDS011;54893;49.864;19.084;2023-06-24T16:48:55;26.27;;;13.33;;
68108;SDS011;54893;49.864;19.084;2023-06-24T16:53:56;24.47;;;11.47;;
68108;SDS011;54893;49.864;19.084;2023-06-24T16:58:56;25.63;;;12.47;;
68108;SDS011;54893;49.864;19.084;2023-06-24T17:03:56;22.00;;;12.37;;
68108;SDS011;54893;49.864;19.084;2023-06-24T17:08:57;24.07;;;12.87;;
68108;SDS011;54893;49.864;19.084;2023-06-24T17:13:57;26.83;;;13.60;;
68108;SDS011;54893;49.864;19.084;2023-06-24T17:18:58;24.43;;;13.33;;
68108;SDS011;54893;49.864;19.084;2023-06-24T17:23:58;22.30;;;11.83;;
68108;SDS011;54893;49.864;19.084;2023-06-24T17:28:59;24.10;;;12.63;;
68108;SDS011;54893;49.864;19.084;2023-06-24T17:33:59;21.70;;;11.43;;
68108;SDS011;54893;49.864;19.084;2023-06-24T17:38:59;23.60;;;11.40;;
68108;SDS011;54893;49.864;19.084;2023-06-24T17:44:00;21.77;;;11.27;;
68108;SDS011;54893;49.864;19.084;2023-06-24T17:49:00;21.43;;;11.33;;
68108;SDS011;54893;49.864;19.084;2023-06-24T17:54:00;20.43;;;11.03;;
68108;SDS011;54893;49.864;19.084;2023-06-24T17:59:01;21.20;;;11.37;;
68108;SDS011;54893;49.864;19.084;2023-06-24T18:04:01;25.57;;;13.13;;
68108;SDS011;54893;49.864;19.084;2023-06-24T18:09:02;28.25;;;14.13;;
68108;SDS011;54893;49.864;19.084;2023-06-24T18:14:02;27.00;;;13.77;;
68108;SDS011;54893;49.864;19.084;2023-06-24T18:19:03;27.70;;;13.07;;
68108;SDS011;54893;49.864;19.084;2023-06-24T18:24:03;26.87;;;13.00;;
68108;SDS011;54893;49.864;19.084;2023-06-24T18:29:04;22.70;;;13.13;;
68108;SDS011;54893;49.864;19.084;2023-06-24T18:34:05;25.80;;;13.63;;
68108;SDS011;54893;49.864;19.084;2023-06-24T18:39:05;23.07;;;12.53;;
68108;SDS011;54893;49.864;19.084;2023-06-24T18:44:06;23.17;;;12.07;;
68108;SDS011;54893;49.864;19.084;2023-06-24T18:49:07;20.60;;;11.40;;
68108;SDS011;54893;49.864;19.084;2023-06-24T18:54:08;20.77;;;10.90;;
68108;SDS011;54893;49.864;19.084;2023-06-24T18:59:08;22.57;;;11.17;;
68108;SDS011;54893;49.864;19.084;2023-06-24T19:04:09;22.80;;;11.07;;
68108;SDS011;54893;49.864;19.084;2023-06-24T19:09:09;21.80;;;10.97;;
68108;SDS011;54893;49.864;19.084;2023-06-24T19:14:09;20.10;;;11.37;;
68108;SDS011;54893;49.864;19.084;2023-06-24T19:19:10;23.37;;;11.60;;
68108;SDS011;54893;49.864;19.084;2023-06-24T19:24:10;24.40;;;12.60;;
68108;SDS011;54893;49.864;19.084;2023-06-24T19:29:11;23.47;;;13.87;;
68108;SDS011;54893;49.864;19.084;2023-06-24T19:34:11;24.75;;;12.48;;
68108;SDS011;54893;49.864;19.084;2023-06-24T19:39:11;23.55;;;11.73;;
68108;SDS011;54893;49.864;19.084;2023-06-24T19:44:12;24.13;;;13.70;;
68108;SDS011;54893;49.864;19.084;2023-06-24T19:49:12;28.27;;;14.27;;
68108;SDS011;54893;49.864;19.084;2023-06-24T19:54:13;27.17;;;13.87;;
68108;SDS011;54893;49.864;19.084;2023-06-24T19:59:13;27.17;;;13.53;;
68108;SDS011;54893;49.864;19.084;2023-06-24T20:04:13;27.90;;;13.73;;
68108;SDS011;54893;49.864;19.084;2023-06-24T20:09:14;25.97;;;14.23;;
68108;SDS011;54893;49.864;19.084;2023-06-24T20:14:14;26.93;;;13.63;;
68108;SDS011;54893;49.864;19.084;2023-06-24T20:19:14;26.27;;;12.70;;
68108;SDS011;54893;49.864;19.084;2023-06-24T20:24:15;27.13;;;13.57;;
68108;SDS011;54893;49.864;19.084;2023-06-24T20:29:15;24.17;;;12.50;;
68108;SDS011;54893;49.864;19.084;2023-06-24T20:34:16;30.50;;;13.50;;
68108;SDS011;54893;49.864;19.084;2023-06-24T20:39:16;28.97;;;13.23;;
68108;SDS011;54893;49.864;19.084;2023-06-24T20:44:16;23.73;;;12.53;;
68108;SDS011;54893;49.864;19.084;2023-06-24T20:49:17;26.63;;;13.30;;
68108;SDS011;54893;49.864;19.084;2023-06-24T20:54:17;30.27;;;13.97;;
68108;SDS011;54893;49.864;19.084;2023-06-24T20:59:18;30.80;;;14.50;;
68108;SDS011;54893;49.864;19.084;2023-06-24T21:04:18;29.50;;;14.57;;
68108;SDS011;54893;49.864;19.084;2023-06-24T21:09:18;26.73;;;13.87;;
68108;SDS011;54893;49.864;19.084;2023-06-24T21:14:19;28.33;;;13.30;;
68108;SDS011;54893;49.864;19.084;2023-06-24T21:19:19;26.23;;;13.90;;
68108;SDS011;54893;49.864;19.084;2023-06-24T21:24:20;34.00;;;15.15;;
68108;SDS011;54893;49.864;19.084;2023-06-24T21:29:20;28.70;;;13.13;;
68108;SDS011;54893;49.864;19.084;2023-06-24T21:34:21;25.52;;;13.60;;
68108;SDS011;54893;49.864;19.084;2023-06-24T21:39:21;28.05;;;13.60;;
68108;SDS011;54893;49.864;19.084;2023-06-24T21:44:22;27.70;;;13.90;;
68108;SDS011;54893;49.864;19.084;2023-06-24T21:49:22;25.48;;;12.88;;
68108;SDS011;54893;49.864;19.084;2023-06-24T21:54:22;28.67;;;12.73;;
68108;SDS011;54893;49.864;19.084;2023-06-24T21:59:23;31.25;;;13.45;;
68108;SDS011;54893;49.864;19.084;2023-06-24T22:04:23;29.80;;;13.50;;
68108;SDS011;54893;49.864;19.084;2023-06-24T22:09:23;26.90;;;13.40;;
68108;SDS011;54893;49.864;19.084;2023-06-24T22:14:24;31.07;;;14.80;;
68108;SDS011;54893;49.864;19.084;2023-06-24T22:19:24;34.80;;;15.30;;
68108;SDS011;54893;49.864;19.084;2023-06-24T22:24:24;31.42;;;13.93;;
68108;SDS011;54893;49.864;19.084;2023-06-24T22:29:25;37.07;;;15.20;;
68108;SDS011;54893;49.864;19.084;2023-06-24T22:34:25;31.93;;;13.87;;
68108;SDS011;54893;49.864;19.084;2023-06-24T22:39:26;28.70;;;13.83;;
68108;SDS011;54893;49.864;19.084;2023-06-24T22:44:26;32.17;;;15.47;;
68108;SDS011;54893;49.864;19.084;2023-06-24T22:49:26;36.60;;;14.97;;
68108;SDS011;54893;49.864;19.084;2023-06-24T22:54:29;32.70;;;14.57;;
68108;SDS011;54893;49.864;19.084;2023-06-24T22:59:30;34.20;;;14.73;;
68108;SDS011;54893;49.864;19.084;2023-06-24T23:04:30;33.97;;;14.17;;
68108;SDS011;54893;49.864;19.084;2023-06-24T23:09:31;35.40;;;15.20;;
68108;SDS011;54893;49.864;19.084;2023-06-24T23:14:31;32.80;;;14.80;;
68108;SDS011;54893;49.864;19.084;2023-06-24T23:19:33;32.42;;;14.15;;
68108;SDS011;54893;49.864;19.084;2023-06-24T23:24:34;30.47;;;13.17;;
68108;SDS011;54893;49.864;19.084;2023-06-24T23:29:36;34.60;;;14.57;;
68108;SDS011;54893;49.864;19.084;2023-06-24T23:34:37;29.83;;;13.67;;
68108;SDS011;54893;49.864;19.084;2023-06-24T23:39:38;29.55;;;13.15;;
68108;SDS011;54893;49.864;19.084;2023-06-24T23:44:38;27.87;;;12.37;;
68108;SDS011;54893;49.864;19.084;2023-06-24T23:49:39;27.67;;;12.37;;
68108;SDS011;54893;49.864;19.084;2023-06-24T23:54:39;26.00;;;11.93;;
68108;SDS011;54893;49.864;19.084;2023-06-24T23:59:40;27.87;;;11.83;;
